createdAt,value
2019-05-30T00:00:36.875Z,77.80
2019-05-30T00:03:05.390Z,76.80
2019-05-30T00:05:33.883Z,77.00
2019-05-30T00:08:02.490Z,76.80
2019-05-30T00:10:30.963Z,76.60
2019-05-30T00:13:00.627Z,76.90
2019-05-30T00:15:29.285Z,76.90
2019-05-30T00:17:58.634Z,76.10
2019-05-30T00:20:27.231Z,77.80
2019-05-30T00:22:56.679Z,77.10
2019-05-30T00:25:25.176Z,77.50
2019-05-30T00:27:53.610Z,78.30
2019-05-30T00:30:24.681Z,79.00
2019-05-30T00:32:52.275Z,79.50
2019-05-30T00:35:20.711Z,79.20
2019-05-30T00:37:49.139Z,78.70
2019-05-30T00:40:17.678Z,77.70
2019-05-30T00:42:46.204Z,77.00
2019-05-30T00:45:21.086Z,77.60
2019-05-30T00:47:45.196Z,77.70
2019-05-30T00:50:14.431Z,77.90
2019-05-30T00:52:42.882Z,77.90
2019-05-30T00:55:11.523Z,78.30
2019-05-30T00:57:40.030Z,78.30
2019-05-30T01:00:09.139Z,78.30
2019-05-30T01:02:37.607Z,78.60
2019-05-30T01:05:08.036Z,78.90
2019-05-30T01:07:36.745Z,77.90
2019-05-30T01:10:07.576Z,77.80
2019-05-30T01:12:36.369Z,77.90
2019-05-30T01:15:07.482Z,78.50
2019-05-30T01:17:36.056Z,78.10
2019-05-30T01:20:07.447Z,77.90
2019-05-30T01:22:36.167Z,78.10
2019-05-30T01:25:07.892Z,78.70
2019-05-30T01:27:36.784Z,79.50
2019-05-30T01:30:07.932Z,79.80
2019-05-30T01:32:36.479Z,79.30
2019-05-30T01:35:08.288Z,80.30
2019-05-30T01:37:36.850Z,80.40
2019-05-30T01:40:08.768Z,80.50
2019-05-30T01:42:37.899Z,80.70
2019-05-30T01:45:08.724Z,80.80
2019-05-30T01:47:37.333Z,80.40
2019-05-30T01:50:11.838Z,80.00
2019-05-30T01:52:40.350Z,80.60
2019-05-30T01:55:10.511Z,79.70
2019-05-30T01:57:39.115Z,79.50
2019-05-30T02:00:20.549Z,79.70
2019-05-30T02:02:43.495Z,81.00
2019-05-30T02:05:12.850Z,81.50
2019-05-30T02:07:41.295Z,80.90
2019-05-30T02:10:10.309Z,79.80
2019-05-30T02:12:38.809Z,80.00
2019-05-30T02:15:10.070Z,80.20
2019-05-30T02:17:38.760Z,79.90
2019-05-30T02:20:08.240Z,80.70
2019-05-30T02:22:36.825Z,80.20
2019-05-30T02:25:08.254Z,80.10
2019-05-30T02:27:36.964Z,80.00
2019-05-30T02:30:09.347Z,80.60
2019-05-30T02:32:37.922Z,80.70
2019-05-30T02:35:07.820Z,79.80
2019-05-30T02:37:36.943Z,80.00
2019-05-30T02:40:09.800Z,80.50
2019-05-30T02:42:37.130Z,80.90
2019-05-30T02:45:07.776Z,80.30
2019-05-30T02:47:36.357Z,80.90
2019-05-30T02:50:11.540Z,81.50
2019-05-30T02:52:39.720Z,82.00
2019-05-30T02:55:10.794Z,81.90
2019-05-30T02:57:38.811Z,82.20
2019-05-30T03:00:12.449Z,81.90
2019-05-30T03:02:38.402Z,81.10
2019-05-30T03:05:10.956Z,80.80
2019-05-30T03:07:37.567Z,80.60
2019-05-30T03:10:12.376Z,80.10
2019-05-30T03:12:39.702Z,80.30
2019-05-30T03:15:12.236Z,80.30
2019-05-30T03:17:39.119Z,80.60
2019-05-30T03:20:14.721Z,80.30
2019-05-30T03:22:39.301Z,80.50
2019-05-30T03:25:11.098Z,80.80
2019-05-30T03:27:38.389Z,81.00
2019-05-30T03:30:16.164Z,80.90
2019-05-30T03:33:04.053Z,80.80
2019-05-30T03:35:18.574Z,81.20
2019-05-30T03:37:38.869Z,81.20
2019-05-30T03:40:08.109Z,81.30
2019-05-30T03:42:36.535Z,81.50
2019-05-30T03:45:11.283Z,81.60
2019-05-30T03:47:41.739Z,81.50
2019-05-30T03:50:17.006Z,81.80
2019-05-30T03:52:43.714Z,82.00
2019-05-30T03:55:14.946Z,82.20
2019-05-30T03:57:52.456Z,82.00
2019-05-30T04:00:26.780Z,82.20
2019-05-30T04:03:11.659Z,82.50
2019-05-30T04:05:43.720Z,82.60
2019-05-30T04:08:16.064Z,82.60
2019-05-30T04:10:47.730Z,82.90
2019-05-30T04:13:22.264Z,83.30
2019-05-30T04:15:50.841Z,83.60
2019-05-30T04:18:19.651Z,83.90
2019-05-30T04:20:48.294Z,84.50
2019-05-30T04:23:17.073Z,85.00
2019-05-30T04:25:46.874Z,85.00
2019-05-30T04:28:16.260Z,84.60
2019-05-30T04:30:45.314Z,84.40
2019-05-30T04:33:26.327Z,85.20
2019-05-30T04:35:43.936Z,85.80
2019-05-30T04:38:12.668Z,85.80
2019-05-30T04:40:41.647Z,85.70
2019-05-30T04:43:11.000Z,85.80
2019-05-30T04:45:39.491Z,86.00
2019-05-30T04:48:09.711Z,86.80
2019-05-30T04:50:38.328Z,88.00
2019-05-30T04:53:06.744Z,88.40
2019-05-30T04:55:35.158Z,88.40
2019-05-30T04:58:03.592Z,88.20
2019-05-30T05:00:33.572Z,88.50
2019-05-30T05:03:02.794Z,88.10
2019-05-30T05:05:31.256Z,87.60
2019-05-30T05:07:59.700Z,88.30
2019-05-30T05:10:28.120Z,88.60
2019-05-30T05:12:56.571Z,89.20
2019-05-30T05:15:24.983Z,89.70
2019-05-30T05:17:53.446Z,89.80
2019-05-30T05:20:23.368Z,89.00
2019-05-30T05:22:52.073Z,88.50
2019-05-30T05:25:21.478Z,86.90
2019-05-30T05:27:50.036Z,86.20
2019-05-30T05:30:20.125Z,85.80
2019-05-30T05:32:48.807Z,84.10
2019-05-30T05:35:18.706Z,82.20
2019-05-30T05:37:47.190Z,80.10
2019-05-30T05:40:16.039Z,79.30
2019-05-30T05:42:44.612Z,78.10
2019-05-30T05:45:13.469Z,68.50
2019-05-30T05:47:41.908Z,68.20
2019-05-30T05:50:10.426Z,65.90
2019-05-30T05:52:39.902Z,64.10
2019-05-30T05:55:08.487Z,61.80
2019-05-30T05:57:36.942Z,60.40
2019-05-30T06:00:09.571Z,59.90
2019-05-30T06:02:38.006Z,59.80
2019-05-30T06:05:07.995Z,55.70
2019-05-30T06:07:36.558Z,50.10
2019-05-30T06:10:06.975Z,48.60
2019-05-30T06:12:35.515Z,44.60
2019-05-30T06:15:07.116Z,46.50
2019-05-30T06:17:35.664Z,47.00
2019-05-30T06:20:06.145Z,43.90
2019-05-30T06:22:34.855Z,38.40
2019-05-30T06:25:04.949Z,38.00
2019-05-30T06:27:33.439Z,36.10
2019-05-30T06:30:01.977Z,39.80
2019-05-30T06:32:30.406Z,35.10
2019-05-30T06:34:58.845Z,38.10
2019-05-30T06:37:27.368Z,34.80
2019-05-30T06:39:57.444Z,36.70
2019-05-30T06:42:25.925Z,35.60
2019-05-30T06:44:54.371Z,37.20
2019-05-30T06:47:22.810Z,38.50
2019-05-30T06:49:51.247Z,33.50
2019-05-30T06:52:20.839Z,36.80
2019-05-30T06:54:49.450Z,35.00
2019-05-30T06:57:17.882Z,35.80
2019-05-30T06:59:46.326Z,34.10
2019-05-30T07:02:14.834Z,36.80
2019-05-30T07:04:51.402Z,35.20
2019-05-30T07:07:13.590Z,37.00
2019-05-30T07:09:42.336Z,35.80
2019-05-30T07:12:12.007Z,35.60
2019-05-30T07:14:42.211Z,35.90
2019-05-30T07:17:10.667Z,36.80
2019-05-30T07:19:39.090Z,36.20
2019-05-30T07:22:07.539Z,35.50
2019-05-30T07:24:35.964Z,36.10
2019-05-30T07:27:04.652Z,33.20
2019-05-30T07:29:34.253Z,32.90
2019-05-30T07:32:02.815Z,32.10
2019-05-30T07:34:34.201Z,31.90
2019-05-30T07:37:02.840Z,31.90
2019-05-30T07:39:35.059Z,33.70
2019-05-30T07:42:06.195Z,35.10
2019-05-30T07:44:32.860Z,31.80
2019-05-30T07:47:01.579Z,33.40
2019-05-30T07:49:30.444Z,31.90
2019-05-30T07:52:00.554Z,32.70
2019-05-30T07:54:29.047Z,31.60
2019-05-30T07:56:57.502Z,32.60
2019-05-30T07:59:26.378Z,31.90
2019-05-30T08:01:54.983Z,30.00
2019-05-30T08:04:23.479Z,32.20
2019-05-30T08:06:51.942Z,31.30
2019-05-30T08:09:20.405Z,32.10
2019-05-30T08:11:48.855Z,33.60
2019-05-30T08:14:17.292Z,33.80
2019-05-30T08:16:45.713Z,34.90
2019-05-30T08:19:14.155Z,33.20
2019-05-30T08:21:42.599Z,30.00
2019-05-30T08:24:11.051Z,30.60
2019-05-30T08:26:39.472Z,31.20
2019-05-30T08:29:07.938Z,33.60
2019-05-30T08:31:36.909Z,31.60
2019-05-30T08:34:05.490Z,35.00
2019-05-30T08:36:34.926Z,33.00
2019-05-30T08:39:05.088Z,32.50
2019-05-30T08:41:33.515Z,33.60
2019-05-30T08:44:01.964Z,28.90
2019-05-30T08:46:32.164Z,30.30
2019-05-30T08:49:01.812Z,31.00
2019-05-30T08:51:30.549Z,29.30
2019-05-30T08:53:59.079Z,29.00
2019-05-30T08:56:28.554Z,27.70
2019-05-30T08:58:57.279Z,26.70
2019-05-30T09:01:27.230Z,25.80
2019-05-30T09:03:56.347Z,27.50
2019-05-30T09:06:24.792Z,28.10
2019-05-30T09:08:53.227Z,26.50
2019-05-30T09:11:21.735Z,28.50
2019-05-30T09:13:50.186Z,31.70
2019-05-30T09:16:18.762Z,31.30
2019-05-30T09:18:47.525Z,32.80
2019-05-30T09:21:17.887Z,28.70
2019-05-30T09:23:47.645Z,29.50
2019-05-30T09:26:16.427Z,29.60
2019-05-30T09:28:46.143Z,28.30
2019-05-30T09:31:14.851Z,29.10
2019-05-30T09:33:44.512Z,29.20
2019-05-30T09:36:14.069Z,27.90
2019-05-30T09:38:43.573Z,28.30
2019-05-30T09:41:12.324Z,28.50
2019-05-30T09:43:42.845Z,27.80
2019-05-30T09:46:11.624Z,28.50
2019-05-30T09:48:41.417Z,29.20
2019-05-30T09:51:10.351Z,27.70
2019-05-30T09:53:38.777Z,28.20
2019-05-30T09:56:07.270Z,29.30
2019-05-30T09:58:35.690Z,28.50
2019-05-30T10:01:04.610Z,28.30
2019-05-30T10:03:33.023Z,28.00
2019-05-30T10:06:01.530Z,32.50
2019-05-30T10:08:29.956Z,32.40
2019-05-30T10:10:58.407Z,31.70
2019-05-30T10:13:26.888Z,31.70
2019-05-30T10:15:56.635Z,31.10
2019-05-30T10:18:25.287Z,30.30
2019-05-30T10:20:53.800Z,30.10
2019-05-30T10:23:22.435Z,29.30
2019-05-30T10:25:51.235Z,28.90
2019-05-30T10:28:19.846Z,28.70
2019-05-30T10:30:53.868Z,27.10
2019-05-30T10:33:19.217Z,26.00
2019-05-30T10:35:49.025Z,27.40
2019-05-30T10:38:19.986Z,25.40
2019-05-30T10:40:48.737Z,27.20
2019-05-30T10:43:18.263Z,29.80
2019-05-30T10:45:49.495Z,27.00
2019-05-30T10:48:20.746Z,28.20
2019-05-30T10:50:48.602Z,28.80
2019-05-30T10:53:17.290Z,28.60
2019-05-30T10:55:47.070Z,31.20
2019-05-30T10:58:16.297Z,30.80
2019-05-30T11:00:48.997Z,31.30
2019-05-30T11:03:18.494Z,28.30
2019-05-30T11:06:06.792Z,27.60
2019-05-30T11:08:37.555Z,28.40
2019-05-30T11:11:05.963Z,27.70
2019-05-30T11:13:34.480Z,28.10
2019-05-30T11:16:02.904Z,27.50
2019-05-30T11:18:31.453Z,27.20
2019-05-30T11:21:00.891Z,26.50
2019-05-30T11:23:29.339Z,26.30
2019-05-30T11:25:58.864Z,26.20
2019-05-30T11:28:27.728Z,26.90
2019-05-30T11:30:56.864Z,27.00
2019-05-30T11:33:25.375Z,27.80
2019-05-30T11:35:55.045Z,26.80
2019-05-30T11:38:23.740Z,25.80
2019-05-30T11:40:53.280Z,28.10
2019-05-30T11:43:21.996Z,28.10
2019-05-30T11:45:51.686Z,32.40
2019-05-30T11:48:20.223Z,29.60
2019-05-30T11:50:50.413Z,31.30
2019-05-30T11:53:19.011Z,30.40
2019-05-30T11:55:47.507Z,29.80
2019-05-30T11:58:19.349Z,29.00
2019-05-30T12:00:46.258Z,28.60
2019-05-30T12:03:16.310Z,27.40
2019-05-30T12:05:44.759Z,26.80
2019-05-30T12:08:13.183Z,27.10
2019-05-30T12:10:41.621Z,27.80
2019-05-30T12:13:10.063Z,28.20
2019-05-30T12:15:38.512Z,27.50
2019-05-30T12:18:06.932Z,28.90
2019-05-30T12:20:35.372Z,29.40
2019-05-30T12:23:03.839Z,28.90
2019-05-30T12:25:32.405Z,28.70
2019-05-30T12:28:03.700Z,28.50
2019-05-30T12:30:31.211Z,28.80
2019-05-30T12:33:00.872Z,28.30
2019-05-30T12:35:29.506Z,27.60
2019-05-30T12:38:02.488Z,28.40
2019-05-30T12:40:28.599Z,28.60
2019-05-30T12:42:59.194Z,27.50
2019-05-30T12:45:27.275Z,27.20
2019-05-30T12:47:55.709Z,28.10
2019-05-30T12:50:24.464Z,27.90
2019-05-30T12:52:53.450Z,28.40
2019-05-30T12:55:22.318Z,28.20
2019-05-30T12:57:50.931Z,28.40
2019-05-30T13:00:25.150Z,29.40
2019-05-30T13:02:54.653Z,26.80
2019-05-30T13:05:23.303Z,26.20
2019-05-30T13:07:51.827Z,27.00
2019-05-30T13:10:21.963Z,26.70
2019-05-30T13:12:50.394Z,27.30
2019-05-30T13:15:19.251Z,27.40
2019-05-30T13:17:47.697Z,27.80
2019-05-30T13:20:16.868Z,26.90
2019-05-30T13:22:45.313Z,27.50
2019-05-30T13:25:16.497Z,26.80
2019-05-30T13:27:45.007Z,28.50
2019-05-30T13:30:15.179Z,28.00
2019-05-30T13:32:43.606Z,27.10
2019-05-30T13:35:12.767Z,26.70
2019-05-30T13:37:41.371Z,27.30
2019-05-30T13:40:24.207Z,27.60
2019-05-30T13:42:42.469Z,26.70
2019-05-30T13:45:11.220Z,26.50
2019-05-30T13:47:39.987Z,26.10
2019-05-30T13:50:13.575Z,25.30
2019-05-30T13:52:41.346Z,24.30
2019-05-30T13:55:10.773Z,24.00
2019-05-30T13:57:39.263Z,24.80
2019-05-30T14:00:10.661Z,24.60
2019-05-30T14:02:39.530Z,24.30
2019-05-30T14:05:10.328Z,24.20
2019-05-30T14:07:39.172Z,26.10
2019-05-30T14:10:08.868Z,27.40
2019-05-30T14:12:37.369Z,27.30
2019-05-30T14:15:13.150Z,28.30
2019-05-30T14:17:39.604Z,29.20
2019-05-30T14:20:09.085Z,28.10
2019-05-30T14:22:37.647Z,28.20
2019-05-30T14:25:07.569Z,28.50
2019-05-30T14:27:36.135Z,28.30
2019-05-30T14:30:09.012Z,26.80
2019-05-30T14:32:37.645Z,28.10
2019-05-30T14:35:11.725Z,27.00
2019-05-30T14:37:39.724Z,26.70
2019-05-30T14:40:11.100Z,26.50
2019-05-30T14:42:40.008Z,26.70
2019-05-30T14:45:10.564Z,26.90
2019-05-30T14:47:39.426Z,26.70
2019-05-30T14:50:11.022Z,25.40
2019-05-30T14:52:39.704Z,26.70
2019-05-30T14:55:11.159Z,26.80
2019-05-30T14:57:39.759Z,26.60
2019-05-30T15:00:11.376Z,25.80
2019-05-30T15:02:41.496Z,26.20
2019-05-30T15:05:11.374Z,26.20
2019-05-30T15:07:39.982Z,24.20
2019-05-30T15:10:10.721Z,25.30
2019-05-30T15:12:41.552Z,26.10
2019-05-30T15:15:13.209Z,25.30
2019-05-30T15:17:40.829Z,25.10
2019-05-30T15:20:11.710Z,24.00
2019-05-30T15:22:40.361Z,24.40
2019-05-30T15:25:09.970Z,24.70
2019-05-30T15:27:38.620Z,24.30
2019-05-30T15:30:08.602Z,24.70
2019-05-30T15:32:37.251Z,24.70
2019-05-30T15:35:06.805Z,25.10
2019-05-30T15:37:35.414Z,24.80
2019-05-30T15:40:08.983Z,24.20
2019-05-30T15:42:37.678Z,24.80
2019-05-30T15:45:08.065Z,25.30
2019-05-30T15:47:37.014Z,24.20
2019-05-30T15:50:06.163Z,24.40
2019-05-30T15:52:34.670Z,23.80
2019-05-30T15:55:03.761Z,23.30
2019-05-30T15:57:33.094Z,23.00
2019-05-30T16:00:01.601Z,22.90
2019-05-30T16:02:30.122Z,23.70
2019-05-30T16:04:58.548Z,23.30
2019-05-30T16:07:26.998Z,23.90
2019-05-30T16:09:55.435Z,24.50
2019-05-30T16:12:23.990Z,24.50
2019-05-30T16:14:52.467Z,24.40
2019-05-30T16:17:21.765Z,24.00
2019-05-30T16:19:50.344Z,24.30
2019-05-30T16:22:18.779Z,24.00
2019-05-30T16:24:47.193Z,23.70
2019-05-30T16:27:15.805Z,24.00
2019-05-30T16:29:44.332Z,23.90
2019-05-30T16:32:13.808Z,24.30
2019-05-30T16:34:42.367Z,24.00
2019-05-30T16:37:10.815Z,23.70
2019-05-30T16:39:39.407Z,23.70
2019-05-30T16:42:07.869Z,23.90
2019-05-30T16:44:36.303Z,23.70
2019-05-30T16:47:04.837Z,24.30
2019-05-30T16:49:34.526Z,23.70
2019-05-30T16:52:02.982Z,23.40
2019-05-30T16:54:31.512Z,24.20
2019-05-30T16:56:59.973Z,23.70
2019-05-30T16:59:28.432Z,24.20
2019-05-30T17:01:58.485Z,23.90
2019-05-30T17:04:28.774Z,24.40
2019-05-30T17:06:57.200Z,24.30
2019-05-30T17:09:25.643Z,24.10
2019-05-30T17:11:54.058Z,23.90
2019-05-30T17:14:23.671Z,23.90
2019-05-30T17:16:52.512Z,24.00
2019-05-30T17:19:22.292Z,24.20
2019-05-30T17:21:50.937Z,24.00
2019-05-30T17:24:19.366Z,24.10
2019-05-30T17:26:51.654Z,23.90
2019-05-30T17:29:19.434Z,24.30
2019-05-30T17:31:47.976Z,24.50
2019-05-30T17:34:17.701Z,24.70
2019-05-30T17:36:46.326Z,25.20
2019-05-30T17:39:14.766Z,25.10
2019-05-30T17:41:43.358Z,25.00
2019-05-30T17:44:11.819Z,25.00
2019-05-30T17:46:40.326Z,24.70
2019-05-30T17:49:09.231Z,25.00
2019-05-30T17:51:37.893Z,24.80
2019-05-30T17:54:07.505Z,24.80
2019-05-30T17:56:35.931Z,25.30
2019-05-30T17:59:04.417Z,25.10
2019-05-30T18:01:32.869Z,25.40
2019-05-30T18:04:01.347Z,25.50
2019-05-30T18:06:30.806Z,25.50
2019-05-30T18:08:59.382Z,25.60
2019-05-30T18:11:28.952Z,25.80
2019-05-30T18:13:57.604Z,26.30
2019-05-30T18:16:27.158Z,26.10
2019-05-30T18:18:55.959Z,26.20
2019-05-30T18:21:25.382Z,26.40
2019-05-30T18:23:53.920Z,26.70
2019-05-30T18:26:23.401Z,26.90
2019-05-30T18:28:52.100Z,27.00
2019-05-30T18:31:21.802Z,27.30
2019-05-30T18:33:50.448Z,27.30
2019-05-30T18:36:18.994Z,27.60
2019-05-30T18:38:47.506Z,27.70
2019-05-30T18:41:16.704Z,27.80
2019-05-30T18:43:45.405Z,27.80
2019-05-30T18:46:13.932Z,27.90
2019-05-30T18:48:42.439Z,28.00
2019-05-30T18:51:11.075Z,28.40
2019-05-30T18:53:39.590Z,28.70
2019-05-30T18:56:08.234Z,28.80
2019-05-30T18:58:37.532Z,29.20
2019-05-30T19:01:06.591Z,30.00
2019-05-30T19:03:35.033Z,31.00
2019-05-30T19:06:03.557Z,31.40
2019-05-30T19:08:32.096Z,31.60
2019-05-30T19:11:00.535Z,31.70
2019-05-30T19:13:29.031Z,32.00
2019-05-30T19:15:57.558Z,32.60
2019-05-30T19:18:27.218Z,32.80
2019-05-30T19:20:55.818Z,33.10
2019-05-30T19:23:24.278Z,33.10
2019-05-30T19:25:52.691Z,33.20
2019-05-30T19:28:21.315Z,33.40
2019-05-30T19:30:49.754Z,33.30
2019-05-30T19:33:20.819Z,33.30
2019-05-30T19:35:49.657Z,33.40
2019-05-30T19:38:19.704Z,33.90
2019-05-30T19:40:48.195Z,34.10
2019-05-30T19:43:16.645Z,34.20
2019-05-30T19:45:45.138Z,34.40
2019-05-30T19:48:13.631Z,34.10
2019-05-30T19:50:42.626Z,35.10
2019-05-30T19:53:11.215Z,34.70
2019-05-30T19:55:39.654Z,34.90
2019-05-30T19:58:08.125Z,34.80
2019-05-30T20:00:56.740Z,34.20
2019-05-30T20:03:06.866Z,33.60
2019-05-30T20:05:36.551Z,32.90
2019-05-30T20:08:05.240Z,33.70
2019-05-30T20:10:34.977Z,33.30
2019-05-30T20:13:03.563Z,33.40
2019-05-30T20:15:33.213Z,33.70
2019-05-30T20:18:01.815Z,33.90
2019-05-30T20:20:47.767Z,34.90
2019-05-30T20:23:00.399Z,35.20
2019-05-30T20:25:28.914Z,35.20
2019-05-30T20:27:57.339Z,34.90
2019-05-30T20:30:25.917Z,35.30
2019-05-30T20:32:54.361Z,35.80
2019-05-30T20:35:22.929Z,36.50
2019-05-30T20:37:51.390Z,36.30
2019-05-30T20:40:20.146Z,36.60
2019-05-30T20:42:48.579Z,36.70
2019-05-30T20:45:18.172Z,37.00
2019-05-30T20:47:47.501Z,37.60
2019-05-30T20:50:18.067Z,37.70
2019-05-30T20:52:47.515Z,38.00
2019-05-30T20:55:16.641Z,38.80
2019-05-30T20:57:45.221Z,39.00
2019-05-30T21:00:16.011Z,39.60
2019-05-30T21:02:44.475Z,39.10
2019-05-30T21:05:13.139Z,38.60
2019-05-30T21:07:44.321Z,38.40
2019-05-30T21:10:14.005Z,38.10
2019-05-30T21:12:46.898Z,37.40
2019-05-30T21:15:15.190Z,37.20
2019-05-30T21:17:48.246Z,36.50
2019-05-30T21:20:16.942Z,36.80
2019-05-30T21:22:46.504Z,36.10
2019-05-30T21:25:15.529Z,35.40
2019-05-30T21:27:45.188Z,36.90
2019-05-30T21:30:14.384Z,36.00
2019-05-30T21:32:44.154Z,36.70
2019-05-30T21:35:13.334Z,36.70
2019-05-30T21:37:41.929Z,37.90
2019-05-30T21:40:10.790Z,38.80
2019-05-30T21:42:55.689Z,38.90
2019-05-30T21:45:09.846Z,37.90
2019-05-30T21:47:38.674Z,38.60
2019-05-30T21:50:07.897Z,38.00
2019-05-30T21:52:36.527Z,37.70
2019-05-30T21:55:09.052Z,36.40
2019-05-30T21:57:37.508Z,36.90
2019-05-30T22:00:14.958Z,37.40
2019-05-30T22:02:46.670Z,38.00
2019-05-30T22:05:15.530Z,37.90
2019-05-30T22:07:45.054Z,38.10
2019-05-30T22:10:13.816Z,37.90
2019-05-30T22:12:43.374Z,37.50
2019-05-30T22:15:12.185Z,37.20
2019-05-30T22:17:41.652Z,37.30
2019-05-30T22:20:10.376Z,38.10
2019-05-30T22:22:38.826Z,38.70
2019-05-30T22:25:07.631Z,39.40
2019-05-30T22:27:36.135Z,39.10
2019-05-30T22:30:05.828Z,39.10
2019-05-30T22:32:34.254Z,39.10
2019-05-30T22:35:02.790Z,39.40
2019-05-30T22:37:31.224Z,39.40
2019-05-30T22:39:59.775Z,39.60
2019-05-30T22:42:28.366Z,40.60
2019-05-30T22:44:56.807Z,41.10
2019-05-30T22:47:25.238Z,41.30
2019-05-30T22:49:53.703Z,40.90
2019-05-30T22:52:22.178Z,41.40
2019-05-30T22:54:51.213Z,41.40
2019-05-30T22:57:19.854Z,42.20
2019-05-30T22:59:48.834Z,42.40
2019-05-30T23:02:17.382Z,42.70
2019-05-30T23:04:46.036Z,44.10
2019-05-30T23:07:14.605Z,46.50
2019-05-30T23:09:43.210Z,46.70
2019-05-30T23:12:11.632Z,48.40
2019-05-30T23:14:40.074Z,47.60
2019-05-30T23:17:08.505Z,48.10
2019-05-30T23:19:37.023Z,47.50
2019-05-30T23:22:05.603Z,48.30
2019-05-30T23:24:34.122Z,50.10
2019-05-30T23:27:02.611Z,48.70
2019-05-30T23:29:31.056Z,48.90
2019-05-30T23:31:59.470Z,47.20
2019-05-30T23:34:27.927Z,46.60
2019-05-30T23:36:56.705Z,48.60
2019-05-30T23:39:25.272Z,45.60
2019-05-30T23:41:55.090Z,44.60
2019-05-30T23:44:23.827Z,45.40
2019-05-30T23:46:53.356Z,46.30
2019-05-30T23:49:21.934Z,47.00
2019-05-30T23:51:50.378Z,46.00
2019-05-30T23:54:18.802Z,46.00
2019-05-30T23:56:47.233Z,47.20
2019-05-30T23:59:15.660Z,47.60
